Terminal Aerodrome Forecast
Issued by NWS Amarillo, TX

Home | Current Version | Previous Version | Text Only | Print | Product List | Glossary On
Versions: 1 2 3 4 5 6 7 8 9 10 11 12
000
FTUS44 KAMA 021700
TAFGUY
TAF
KGUY 021739Z 0218/0318 03010KT P6SM BKN100
     FM022200 04009KT P6SM VCTS SCT050CB BKN100
     FM030200 07008KT P6SM SCT080 BKN200=

USA.gov is the U.S. government's official web portal to all federal, state and local government web resources and services.